| time (UTC) | temp F | wind direction | speed knots | gust knots | rain 1hr in | rain 24hr in | rain mn in | humidity % | barometer mb |
| 20260505140520 | 54 | 156 | 1.7 | 3.5 | 0.00 | 0.00 | 0.00 | 79 | 1015.8 |
| 20260505125006 | 54 | 163 | 0.0 | 0.0 | 0.00 | 0.00 | 0.00 | 82 | 1015.5 |
| 20260505124945 | 54 | 163 | 0.0 | 0.0 | 0.00 | 0.00 | 0.00 | 81 | 1015.4 |
| 20260505124003 | 54 | 163 | 0.0 | 0.0 | 0.00 | 0.00 | 0.00 | 81 | 1015.4 |
| 20260505123503 | 54 | 163 | 0.0 | 0.0 | 0.00 | 0.00 | 0.00 | 81 | 1015.3 |
| 20260505123459 | 54 | 163 | 0.0 | 0.0 | 0.00 | 0.00 | 0.00 | 80 | 1015.3 |
| 20260505122458 | 54 | 163 | 0.0 | 0.0 | 0.00 | 0.00 | 0.00 | 80 | 1015.3 |
| 20260505122437 | 54 | 163 | 0.0 | 0.0 | 0.00 | 0.00 | 0.00 | 80 | 1015.3 |
| 20260505121454 | 54 | 163 | 0.0 | 0.0 | 0.00 | 0.00 | 0.00 | 80 | 1015.3 |
| 20260505120954 | 54 | 163 | 0.0 | 0.0 | 0.00 | 0.00 | 0.00 | 80 | 1015.3 |
| 20260505120455 | 54 | 163 | 0.0 | 0.0 | 0.00 | 0.00 | 0.00 | 80 | 1015.3 |
| 20260505115952 | 54 | 163 | 0.0 | 1.7 | 0.00 | 0.00 | 0.00 | 80 | 1015.2 |
| 20260505115714 | 54 | 163 | 0.0 | 1.7 | 0.00 | 0.00 | 0.00 | 80 | 1015.2 |
| 20260505114946 | 54 | 163 | 0.9 | 1.7 | 0.00 | 0.00 | 0.00 | 80 | 1015.2 |
| 20260505114445 | 54 | 163 | 0.9 | 1.7 | 0.00 | 0.00 | 0.00 | 80 | 1015.2 |
| 20260505113942 | 54 | 163 | 0.0 | 1.7 | 0.00 | 0.00 | 0.00 | 80 | 1015.1 |
| 20260505113711 | 54 | 163 | 0.9 | 1.7 | 0.00 | 0.00 | 0.00 | 80 | 1015.1 |
| 20260505112943 | 54 | 163 | 0.9 | 1.7 | 0.00 | 0.00 | 0.00 | 80 | 1015.2 |
| 20260505112443 | 54 | 163 | 0.9 | 3.5 | 0.00 | 0.00 | 0.00 | 80 | 1015.3 |
| 20260505111941 | 54 | 163 | 0.9 | 3.5 | 0.00 | 0.00 | 0.00 | 80 | 1015.3 |
| 20260505111438 | 54 | 159 | 0.0 | 1.7 | 0.00 | 0.00 | 0.00 | 81 | 1015.3 |
| 20260505110938 | 54 | 159 | 0.0 | 1.7 | 0.00 | 0.00 | 0.00 | 80 | 1015.3 |
| 20260505110704 | 54 | 159 | 0.0 | 1.7 | 0.00 | 0.00 | 0.00 | 80 | 1015.2 |
| 20260505101927 | 54 | 202 | 1.7 | 4.3 | 0.00 | 0.00 | 0.00 | 80 | 1014.9 |
| 20260505101426 | 54 | 152 | 2.6 | 4.3 | 0.00 | 0.00 | 0.00 | 80 | 1014.9 |
| 20260505100926 | 54 | 216 | 2.6 | 4.3 | 0.00 | 0.00 | 0.00 | 80 | 1014.9 |
| 20260505100426 | 54 | 209 | 2.6 | 4.3 | 0.00 | 0.00 | 0.00 | 79 | 1014.9 |
| 20260505095922 | 54 | 191 | 2.6 | 4.3 | 0.00 | 0.00 | 0.00 | 79 | 1014.8 |
| 20260505095423 | 54 | 183 | 2.6 | 7.0 | 0.00 | 0.00 | 0.00 | 80 | 1014.7 |
| 20260505094924 | 54 | 169 | 1.7 | 7.0 | 0.00 | 0.00 | 0.00 | 80 | 1014.7 |
| 20260505094422 | 54 | 190 | 1.7 | 3.5 | 0.00 | 0.00 | 0.00 | 80 | 1014.7 |
| 20260505093922 | 54 | 171 | 1.7 | 7.8 | 0.00 | 0.00 | 0.00 | 80 | 1014.7 |
| 20260505093640 | 54 | 218 | 1.7 | 7.8 | 0.00 | 0.00 | 0.00 | 80 | 1014.7 |
| 20260505092922 | 54 | 229 | 1.7 | 4.3 | 0.00 | 0.00 | 0.00 | 80 | 1014.7 |
| 20260505092643 | 54 | 200 | 1.7 | 4.3 | 0.00 | 0.00 | 0.00 | 80 | 1014.7 |
| 20260505092139 | 54 | 236 | 2.6 | 5.2 | 0.00 | 0.00 | 0.00 | 80 | 1014.7 |
| 20260505091423 | 54 | 222 | 3.5 | 6.1 | 0.00 | 0.00 | 0.00 | 79 | 1014.6 |
| 20260505090924 | 54 | 225 | 3.5 | 7.8 | 0.00 | 0.00 | 0.00 | 79 | 1014.6 |
| 20260505090422 | 54 | 160 | 3.5 | 7.8 | 0.00 | 0.00 | 0.00 | 79 | 1014.6 |
| 20260505090153 | 54 | 196 | 3.5 | 6.1 | 0.00 | 0.00 | 0.00 | 80 | 1014.6 |
| 20260505085911 | 54 | 211 | 3.5 | 6.1 | 0.00 | 0.00 | 0.00 | 80 | 1014.6 |
| 20260505085411 | 54 | 190 | 3.5 | 6.1 | 0.00 | 0.00 | 0.00 | 80 | 1014.6 |
| 20260505084421 | 54 | 153 | 3.5 | 7.0 | 0.00 | 0.00 | 0.00 | 80 | 1014.6 |
| 20260505083921 | 54 | 171 | 3.5 | 7.8 | 0.00 | 0.00 | 0.00 | 80 | 1014.6 |
| 20260505083420 | 54 | 209 | 3.5 | 7.8 | 0.00 | 0.00 | 0.00 | 80 | 1014.5 |
| 20260505082921 | 54 | 218 | 2.6 | 4.3 | 0.00 | 0.00 | 0.00 | 80 | 1014.6 |
| 20260505082422 | 54 | 213 | 1.7 | 4.3 | 0.00 | 0.00 | 0.00 | 80 | 1014.6 |
| 20260505081921 | 54 | 169 | 2.6 | 6.1 | 0.00 | 0.00 | 0.00 | 80 | 1014.6 |
| 20260505081423 | 54 | 213 | 2.6 | 6.1 | 0.00 | 0.00 | 0.00 | 80 | 1014.6 |
| 20260505080921 | 54 | 158 | 1.7 | 3.5 | 0.00 | 0.00 | 0.00 | 80 | 1014.7 |
| 20260505080420 | 54 | 194 | 1.7 | 7.0 | 0.00 | 0.00 | 0.00 | 80 | 1014.6 |
| 20260505075919 | 54 | 135 | 2.6 | 7.0 | 0.00 | 0.00 | 0.00 | 80 | 1014.6 |
| 20260505075421 | 54 | 172 | 2.6 | 5.2 | 0.00 | 0.00 | 0.00 | 80 | 1014.6 |
| 20260505075137 | 54 | 201 | 2.6 | 5.2 | 0.00 | 0.00 | 0.00 | 80 | 1014.7 |
| 20260505074421 | 54 | 207 | 2.6 | 6.1 | 0.00 | 0.00 | 0.00 | 79 | 1014.5 |
| 20260505074147 | 54 | 155 | 2.6 | 8.7 | 0.00 | 0.00 | 0.00 | 79 | 1014.5 |
| 20260505073652 | 54 | 153 | 2.6 | 8.7 | 0.00 | 0.00 | 0.00 | 79 | 1014.5 |
| 20260505072921 | 54 | 207 | 1.7 | 3.5 | 0.00 | 0.00 | 0.00 | 79 | 1014.5 |
| 20260505072642 | 54 | 140 | 2.6 | 7.0 | 0.00 | 0.00 | 0.00 | 79 | 1014.4 |
| 20260505071920 | 54 | 135 | 2.6 | 7.0 | 0.00 | 0.00 | 0.00 | 80 | 1014.4 |
| 20260505071421 | 54 | 182 | 1.7 | 7.0 | 0.00 | 0.00 | 0.00 | 80 | 1014.4 |
| 20260505071139 | 54 | 159 | 0.9 | 4.3 | 0.00 | 0.00 | 0.00 | 80 | 1014.4 |
| 20260505070643 | 54 | 164 | 0.9 | 1.7 | 0.00 | 0.00 | 0.00 | 80 | 1014.4 |
| 20260505065917 | 54 | 164 | 0.9 | 3.5 | 0.00 | 0.00 | 0.00 | 80 | 1014.4 |
| 20260505065418 | 54 | 164 | 1.7 | 4.3 | 0.00 | 0.00 | 0.00 | 80 | 1014.4 |
| 20260505064917 | 54 | 209 | 2.6 | 4.3 | 0.00 | 0.00 | 0.00 | 80 | 1014.4 |
| 20260505064416 | 54 | 167 | 2.6 | 4.3 | 0.00 | 0.00 | 0.00 | 80 | 1014.4 |
| 20260505063913 | 54 | 188 | 1.7 | 4.3 | 0.00 | 0.00 | 0.00 | 79 | 1014.4 |
| 20260505063413 | 54 | 197 | 0.9 | 4.3 | 0.00 | 0.00 | 0.00 | 79 | 1014.4 |
| 20260505062912 | 54 | 219 | 0.9 | 3.5 | 0.00 | 0.00 | 0.00 | 79 | 1014.4 |
| 20260505062414 | 54 | 206 | 1.7 | 7.8 | 0.00 | 0.00 | 0.00 | 79 | 1014.3 |
| 20260505061907 | 54 | 209 | 1.7 | 7.8 | 0.00 | 0.00 | 0.00 | 79 | 1014.3 |
| 20260505061401 | 55 | 186 | 0.0 | 3.5 | 0.00 | 0.00 | 0.00 | 79 | 1014.3 |
| 20260505060855 | 55 | 346 | 0.0 | 0.9 | 0.00 | 0.00 | 0.00 | 80 | 1014.3 |
| 20260505060349 | 55 | 346 | 0.0 | 0.9 | 0.00 | 0.00 | 0.00 | 80 | 1014.3 |
| 20260505055843 | 55 | 346 | 0.0 | 1.7 | 0.00 | 0.00 | 0.00 | 79 | 1014.4 |
| 20260505055338 | 55 | 346 | 0.0 | 1.7 | 0.00 | 0.00 | 0.00 | 79 | 1014.3 |
| 20260505054831 | 55 | 346 | 0.0 | 1.7 | 0.00 | 0.00 | 0.00 | 80 | 1014.3 |
| 20260505054325 | 55 | 346 | 0.9 | 2.6 | 0.00 | 0.00 | 0.00 | 80 | 1014.3 |
| 20260505053820 | 55 | 346 | 0.9 | 2.6 | 0.00 | 0.00 | 0.00 | 79 | 1014.4 |
| 20260505053313 | 55 | 346 | 0.9 | 2.6 | 0.00 | 0.00 | 0.00 | 79 | 1014.3 |
| 20260505052807 | 55 | 346 | 0.9 | 3.5 | 0.00 | 0.00 | 0.00 | 79 | 1014.3 |
| 20260505052301 | 55 | 346 | 0.9 | 3.5 | 0.00 | 0.00 | 0.00 | 79 | 1014.2 |
| 20260505051754 | 55 | 109 | 0.9 | 2.6 | 0.00 | 0.00 | 0.00 | 79 | 1014.2 |
| 20260505051249 | 55 | 86 | 0.0 | 1.7 | 0.00 | 0.00 | 0.00 | 79 | 1014.2 |
| 20260505050743 | 55 | 84 | 0.0 | 1.7 | 0.00 | 0.00 | 0.00 | 78 | 1014.2 |
| 20260505050237 | 55 | 84 | 0.9 | 1.7 | 0.00 | 0.00 | 0.00 | 78 | 1014.1 |
| 20260505041643 | 56 | 64 | 0.9 | 1.7 | 0.00 | 0.00 | 0.00 | 75 | 1013.5 |
| 20260505041137 | 57 | 65 | 0.0 | 2.6 | 0.00 | 0.00 | 0.00 | 75 | 1013.4 |
| 20260505040631 | 57 | 65 | 0.0 | 2.6 | 0.00 | 0.00 | 0.00 | 74 | 1013.4 |
| 20260505040346 | 57 | 306 | 0.9 | 2.6 | 0.00 | 0.00 | 0.00 | 74 | 1013.3 |
| 20260505035618 | 57 | 306 | 0.9 | 2.6 | 0.00 | 0.00 | 0.00 | 74 | 1013.2 |
| 20260505035113 | 57 | 207 | 0.0 | 2.6 | 0.00 | 0.00 | 0.00 | 74 | 1013.2 |
| 20260505034607 | 58 | 207 | 0.0 | 2.6 | 0.00 | 0.00 | 0.00 | 74 | 1013.1 |
| 20260505034101 | 58 | 250 | 0.9 | 2.6 | 0.00 | 0.00 | 0.00 | 73 | 1013.0 |
| 20260505033815 | 58 | 194 | 0.9 | 1.7 | 0.00 | 0.00 | 0.00 | 72 | 1012.8 |
| 20260505033050 | 58 | 189 | 0.9 | 1.7 | 0.00 | 0.00 | 0.00 | 72 | 1012.7 |
| 20260505032550 | 58 | 189 | 0.9 | 1.7 | 0.00 | 0.00 | 0.00 | 72 | 1012.7 |
| 20260505032051 | 59 | 189 | 0.9 | 1.7 | 0.00 | 0.00 | 0.00 | 71 | 1012.6 |
| 20260505031549 | 59 | 189 | 0.9 | 1.7 | 0.00 | 0.00 | 0.00 | 71 | 1012.5 |
| 20260505031048 | 59 | 190 | 0.0 | 1.7 | 0.00 | 0.00 | 0.00 | 71 | 1012.4 |
| 20260505030820 | 60 | 190 | 0.0 | 0.0 | 0.00 | 0.00 | 0.00 | 71 | 1012.4 |
| 20260505030047 | 60 | 205 | 0.0 | 1.7 | 0.00 | 0.00 | 0.00 | 70 | 1012.4 |
| 20260505025545 | 60 | 138 | 0.0 | 1.7 | 0.00 | 0.00 | 0.00 | 69 | 1012.2 |
| 20260505025046 | 60 | 136 | 0.9 | 2.6 | 0.00 | 0.00 | 0.00 | 69 | 1012.2 |
| 20260505024544 | 60 | 136 | 0.9 | 2.6 | 0.00 | 0.00 | 0.00 | 69 | 1012.2 |
| 20260505024044 | 61 | 128 | 0.9 | 2.6 | 0.00 | 0.00 | 0.00 | 69 | 1012.1 |
| 20260505023546 | 61 | 300 | 0.9 | 2.6 | 0.00 | 0.00 | 0.00 | 68 | 1012.1 |
| 20260505023042 | 61 | 308 | 0.9 | 4.3 | 0.00 | 0.00 | 0.00 | 68 | 1012.0 |
| 20260505022541 | 62 | 260 | 1.7 | 4.3 | 0.00 | 0.00 | 0.00 | 67 | 1011.8 |
| 20260505022042 | 62 | 5 | 1.7 | 4.3 | 0.00 | 0.00 | 0.00 | 67 | 1011.8 |
| 20260505021540 | 62 | 42 | 2.6 | 4.3 | 0.00 | 0.00 | 0.00 | 67 | 1011.8 |
| 20260505021040 | 62 | 9 | 2.6 | 4.3 | 0.00 | 0.00 | 0.00 | 66 | 1011.8 |
| 20260505020540 | 63 | 27 | 3.5 | 6.1 | 0.00 | 0.00 | 0.00 | 66 | 1011.7 |
| 20260505020041 | 63 | 18 | 2.6 | 6.1 | 0.00 | 0.00 | 0.00 | 65 | 1011.7 |
| 20260505015535 | 64 | 355 | 1.7 | 5.2 | 0.00 | 0.00 | 0.00 | 63 | 1011.8 |
| 20260505015029 | 65 | 338 | 2.6 | 5.2 | 0.00 | 0.00 | 0.00 | 63 | 1011.8 |
| 20260505014526 | 65 | 5 | 2.6 | 5.2 | 0.00 | 0.00 | 0.00 | 62 | 1011.8 |
| 20260505014249 | 66 | 349 | 2.6 | 5.2 | 0.00 | 0.00 | 0.00 | 61 | 1011.8 |
| 20260505013527 | 67 | 0 | 2.6 | 5.2 | 0.00 | 0.00 | 0.00 | 60 | 1011.8 |
| 20260505013027 | 68 | 355 | 1.7 | 4.3 | 0.00 | 0.00 | 0.00 | 58 | 1011.8 |
| 20260505012746 | 68 | 0 | 1.7 | 4.3 | 0.00 | 0.00 | 0.00 | 58 | 1011.9 |
| 20260505012026 | 68 | 345 | 1.7 | 5.2 | 0.00 | 0.00 | 0.00 | 58 | 1011.9 |
| 20260505011752 | 69 | 39 | 2.6 | 5.2 | 0.00 | 0.00 | 0.00 | 57 | 1011.8 |
| 20260505011026 | 69 | 11 | 1.7 | 4.3 | 0.00 | 0.00 | 0.00 | 59 | 1011.9 |
| 20260505010527 | 69 | 11 | 1.7 | 4.3 | 0.00 | 0.00 | 0.00 | 57 | 1011.9 |
| 20260505010251 | 69 | 26 | 1.7 | 4.3 | 0.00 | 0.00 | 0.00 | 57 | 1011.9 |
| 20260505005526 | 69 | 249 | 1.7 | 7.0 | 0.00 | 0.00 | 0.00 | 58 | 1011.9 |
| 20260505005027 | 69 | 209 | 3.5 | 8.7 | 0.00 | 0.00 | 0.00 | 58 | 1011.9 |
| 20260505004522 | 69 | 151 | 3.5 | 8.7 | 0.00 | 0.00 | 0.00 | 58 | 1012.0 |
| 20260505004022 | 70 | 196 | 2.6 | 7.0 | 0.00 | 0.00 | 0.00 | 55 | 1011.9 |
| 20260505003523 | 70 | 227 | 3.5 | 7.8 | 0.00 | 0.00 | 0.00 | 59 | 1011.9 |
| 20260505003022 | 70 | 245 | 3.5 | 8.7 | 0.00 | 0.00 | 0.00 | 56 | 1012.0 |
| 20260505002522 | 71 | 208 | 3.5 | 8.7 | 0.00 | 0.00 | 0.00 | 56 | 1011.9 |
| 20260505002245 | 71 | 201 | 3.5 | 8.7 | 0.00 | 0.00 | 0.00 | 57 | 1011.9 |
| 20260505001525 | 71 | 197 | 4.3 | 7.8 | 0.00 | 0.00 | 0.00 | 57 | 1011.9 |
| 20260505001023 | 72 | 204 | 3.5 | 8.7 | 0.00 | 0.00 | 0.00 | 55 | 1011.8 |
| 20260505000525 | 72 | 210 | 3.5 | 8.7 | 0.00 | 0.00 | 0.00 | 54 | 1011.8 |
| 20260505000021 | 72 | 202 | 3.5 | 8.7 | 0.00 | 0.00 | 0.00 | 55 | 1011.8 |
| 20260504235523 | 72 | 224 | 2.6 | 7.0 | 0.00 | 0.00 | 0.00 | 55 | 1011.8 |
| 20260504235023 | 72 | 144 | 3.5 | 7.0 | 0.00 | 0.00 | 0.00 | 56 | 1011.7 |
| 20260504234748 | 72 | 199 | 3.5 | 6.1 | 0.00 | 0.00 | 0.00 | 60 | 1011.7 |
| 20260504234023 | 72 | 167 | 4.3 | 9.6 | 0.00 | 0.00 | 0.00 | 58 | 1011.7 |
| 20260504233523 | 72 | 198 | 4.3 | 9.6 | 0.00 | 0.00 | 0.00 | 55 | 1011.7 |
| 20260504233021 | 72 | 217 | 4.3 | 7.8 | 0.00 | 0.00 | 0.00 | 55 | 1011.7 |
| 20260504232522 | 72 | 200 | 5.2 | 9.6 | 0.00 | 0.00 | 0.00 | 55 | 1011.7 |
| 20260504232022 | 72 | 225 | 5.2 | 9.6 | 0.00 | 0.00 | 0.00 | 57 | 1011.7 |
| 20260504231521 | 72 | 208 | 5.2 | 9.6 | 0.00 | 0.00 | 0.00 | 57 | 1011.8 |
| 20260504231018 | 72 | 151 | 4.3 | 8.7 | 0.00 | 0.00 | 0.00 | 54 | 1011.9 |
| 20260504230519 | 73 | 178 | 3.5 | 7.8 | 0.00 | 0.00 | 0.00 | 57 | 1011.9 |
| 20260504230016 | 73 | 186 | 3.5 | 7.8 | 0.00 | 0.00 | 0.00 | 54 | 1012.0 |
| 20260504225515 | 72 | 205 | 3.5 | 8.7 | 0.00 | 0.00 | 0.00 | 54 | 1012.1 |
| 20260504225017 | 72 | 193 | 4.3 | 8.7 | 0.00 | 0.00 | 0.00 | 56 | 1012.1 |
| 20260504224516 | 73 | 182 | 4.3 | 8.7 | 0.00 | 0.00 | 0.00 | 55 | 1012.2 |
| 20260504224013 | 72 | 228 | 5.2 | 10.4 | 0.00 | 0.00 | 0.00 | 54 | 1012.2 |
| 20260504223511 | 73 | 167 | 3.5 | 10.4 | 0.00 | 0.00 | 0.00 | 59 | 1012.4 |
| 20260504223013 | 73 | 186 | 3.5 | 7.0 | 0.00 | 0.00 | 0.00 | 55 | 1012.4 |
| 20260504222514 | 72 | 244 | 3.5 | 7.8 | 0.00 | 0.00 | 0.00 | 53 | 1012.4 |
| 20260504222238 | 72 | 177 | 3.5 | 7.8 | 0.00 | 0.00 | 0.00 | 54 | 1012.5 |
| 20260504221512 | 72 | 184 | 2.6 | 7.8 | 0.00 | 0.00 | 0.00 | 55 | 1012.6 |
| 20260504221009 | 72 | 205 | 3.5 | 7.8 | 0.00 | 0.00 | 0.00 | 54 | 1012.7 |
| 20260504220510 | 72 | 217 | 3.5 | 7.8 | 0.00 | 0.00 | 0.00 | 56 | 1012.7 |
| 20260504220010 | 71 | 200 | 3.5 | 7.8 | 0.00 | 0.00 | 0.00 | 55 | 1012.7 |
| 20260504215510 | 71 | 219 | 3.5 | 7.8 | 0.00 | 0.00 | 0.00 | 57 | 1012.8 |
| 20260504215237 | 71 | 173 | 4.3 | 8.7 | 0.00 | 0.00 | 0.00 | 56 | 1012.8 |
| 20260504214725 | 71 | 186 | 3.5 | 8.7 | 0.00 | 0.00 | 0.00 | 59 | 1012.8 |
| 20260504213952 | 71 | 171 | 3.5 | 7.0 | 0.00 | 0.00 | 0.00 | 55 | 1012.9 |
| 20260504213446 | 71 | 152 | 3.5 | 9.6 | 0.00 | 0.00 | 0.00 | 55 | 1012.9 |
| 20260504212940 | 71 | 175 | 3.5 | 9.6 | 0.00 | 0.00 | 0.00 | 57 | 1012.9 |
| 20260504212656 | 71 | 171 | 2.6 | 7.0 | 0.00 | 0.00 | 0.00 | 57 | 1012.9 |
| 20260504211928 | 71 | 215 | 3.5 | 7.0 | 0.00 | 0.00 | 0.00 | 61 | 1013.0 |
| 20260504211422 | 70 | 227 | 3.5 | 7.8 | 0.00 | 0.00 | 0.00 | 57 | 1013.1 |
| 20260504210916 | 70 | 200 | 3.5 | 7.8 | 0.00 | 0.00 | 0.00 | 59 | 1013.1 |
| 20260504205904 | 69 | 147 | 2.6 | 6.1 | 0.00 | 0.00 | 0.00 | 57 | 1013.3 |
| 20260504205358 | 69 | 186 | 1.7 | 6.1 | 0.00 | 0.00 | 0.00 | 59 | 1013.2 |
| 20260504204853 | 69 | 257 | 2.6 | 5.2 | 0.00 | 0.00 | 0.00 | 58 | 1013.3 |
| 20260504204346 | 69 | 185 | 3.5 | 9.6 | 0.00 | 0.00 | 0.00 | 58 | 1013.4 |
| 20260504203841 | 69 | 172 | 2.6 | 7.8 | 0.00 | 0.00 | 0.00 | 59 | 1013.4 |
| 20260504203334 | 69 | 129 | 1.7 | 3.5 | 0.00 | 0.00 | 0.00 | 60 | 1013.4 |
| 20260504202828 | 68 | 23 | 1.7 | 7.8 | 0.00 | 0.00 | 0.00 | 58 | 1013.4 |
| 20260504202322 | 68 | 212 | 1.7 | 7.8 | 0.00 | 0.00 | 0.00 | 64 | 1013.5 |
| 20260504201816 | 68 | 215 | 2.6 | 6.1 | 0.00 | 0.00 | 0.00 | 63 | 1013.5 |
| 20260504201310 | 67 | 307 | 2.6 | 7.0 | 0.00 | 0.00 | 0.00 | 60 | 1013.6 |
| 20260504200804 | 67 | 256 | 2.6 | 7.0 | 0.00 | 0.00 | 0.00 | 62 | 1013.5 |
| 20260504200515 | 67 | 218 | 3.5 | 7.0 | 0.00 | 0.00 | 0.00 | 63 | 1013.6 |
| 20260504195753 | 67 | 279 | 2.6 | 5.2 | 0.00 | 0.00 | 0.00 | 61 | 1013.6 |
| 20260504195246 | 66 | 222 | 2.6 | 6.1 | 0.00 | 0.00 | 0.00 | 62 | 1013.7 |
| 20260504194740 | 66 | 146 | 2.6 | 6.1 | 0.00 | 0.00 | 0.00 | 63 | 1013.6 |
| 20260504194234 | 66 | 243 | 1.7 | 4.3 | 0.00 | 0.00 | 0.00 | 64 | 1013.7 |
| 20260504193728 | 65 | 84 | 2.6 | 4.3 | 0.00 | 0.00 | 0.00 | 63 | 1013.7 |
| 20260504193223 | 65 | 196 | 2.6 | 7.8 | 0.00 | 0.00 | 0.00 | 66 | 1013.8 |
| 20260504192716 | 65 | 186 | 2.6 | 7.8 | 0.00 | 0.00 | 0.00 | 67 | 1013.8 |
| 20260504192211 | 64 | 233 | 3.5 | 7.8 | 0.00 | 0.00 | 0.00 | 65 | 1013.8 |
| 20260504191705 | 64 | 209 | 3.5 | 7.8 | 0.00 | 0.00 | 0.00 | 66 | 1013.9 |
| 20260504191158 | 63 | 195 | 2.6 | 7.8 | 0.00 | 0.00 | 0.00 | 69 | 1013.8 |
| 20260504190652 | 63 | 167 | 2.6 | 7.8 | 0.00 | 0.00 | 0.00 | 68 | 1013.8 |
| 20260504190146 | 62 | 160 | 3.5 | 7.0 | 0.00 | 0.00 | 0.00 | 67 | 1013.9 |
| 20260504185904 | 62 | 171 | 2.6 | 7.0 | 0.00 | 0.00 | 0.00 | 69 | 1014.0 |
| 20260504185135 | 62 | 196 | 1.7 | 6.1 | 0.00 | 0.00 | 0.00 | 68 | 1014.0 |
| 20260504185104 | 62 | 211 | 2.6 | 6.1 | 0.00 | 0.00 | 0.00 | 69 | 1014.0 |
| 20260504184122 | 61 | 198 | 2.6 | 8.7 | 0.00 | 0.00 | 0.00 | 70 | 1014.1 |
| 20260504183616 | 61 | 184 | 2.6 | 8.7 | 0.00 | 0.00 | 0.00 | 70 | 1014.1 |
| 20260504183110 | 61 | 190 | 2.6 | 8.7 | 0.00 | 0.00 | 0.00 | 68 | 1014.2 |
| 20260504182604 | 61 | 188 | 1.7 | 5.2 | 0.00 | 0.00 | 0.00 | 70 | 1014.2 |
| 20260504182057 | 61 | 169 | 2.6 | 5.2 | 0.00 | 0.00 | 0.00 | 69 | 1014.2 |
| 20260504181552 | 61 | 172 | 2.6 | 7.0 | 0.00 | 0.00 | 0.00 | 71 | 1014.3 |
| 20260504181046 | 60 | 226 | 1.7 | 7.0 | 0.00 | 0.00 | 0.00 | 71 | 1014.3 |
| 20260504180540 | 60 | 234 | 1.7 | 6.1 | 0.00 | 0.00 | 0.00 | 72 | 1014.3 |
| 20260504180040 | 60 | 223 | 2.6 | 7.0 | 0.00 | 0.00 | 0.00 | 72 | 1014.4 |
| 20260504175541 | 59 | 159 | 2.6 | 7.8 | 0.00 | 0.00 | 0.00 | 73 | 1014.3 |
| 20260504175041 | 59 | 123 | 1.7 | 7.8 | 0.00 | 0.00 | 0.00 | 73 | 1014.2 |
| 20260504174541 | 59 | 194 | 0.0 | 4.3 | 0.00 | 0.00 | 0.00 | 73 | 1014.3 |
| 20260504174040 | 59 | 240 | 1.7 | 7.0 | 0.00 | 0.00 | 0.00 | 73 | 1014.3 |
| 20260504173537 | 58 | 201 | 3.5 | 7.0 | 0.00 | 0.00 | 0.00 | 74 | 1014.3 |
| 20260504173518 | 58 | 227 | 2.6 | 7.0 | 0.00 | 0.00 | 0.00 | 74 | 1014.3 |
| 20260504172803 | 58 | 143 | 2.6 | 6.1 | 0.00 | 0.00 | 0.00 | 74 | 1014.3 |
| 20260504172310 | 58 | 171 | 2.6 | 6.1 | 0.00 | 0.00 | 0.00 | 75 | 1014.3 |
| 20260504171539 | 58 | 195 | 2.6 | 5.2 | 0.00 | 0.00 | 0.00 | 75 | 1014.4 |
| 20260504171039 | 58 | 161 | 2.6 | 6.1 | 0.00 | 0.00 | 0.00 | 75 | 1014.4 |
| 20260504170538 | 57 | 176 | 1.7 | 6.1 | 0.00 | 0.00 | 0.00 | 75 | 1014.4 |
| 20260504170257 | 57 | 223 | 1.7 | 5.2 | 0.00 | 0.00 | 0.00 | 76 | 1014.4 |
| 20260504151024 | 55 | 152 | 1.7 | 6.1 | 0.00 | 0.00 | 0.00 | 79 | 1013.9 |
| 20260504150524 | 54 | 204 | 1.7 | 6.1 | 0.00 | 0.00 | 0.00 | 80 | 1013.9 |
| 20260504150248 | 54 | 192 | 1.7 | 6.1 | 0.00 | 0.00 | 0.00 | 80 | 1013.8 |